createdAt,value
2023-04-28T00:01:54.310Z,57.84
2023-04-28T00:04:27.216Z,57.94
2023-04-28T00:06:59.430Z,58.15
2023-04-28T00:09:31.801Z,58.19
2023-04-28T00:12:04.922Z,58.39
2023-04-28T00:14:37.070Z,57.93
2023-04-28T00:17:10.909Z,57.93
2023-04-28T00:19:43.332Z,57.89
2023-04-28T00:22:15.778Z,57.89
2023-04-28T00:24:48.325Z,57.95
2023-04-28T00:27:20.880Z,57.69
2023-04-28T00:29:53.251Z,57.90
2023-04-28T00:32:25.514Z,57.97
2023-04-28T00:34:59.214Z,58.10
2023-04-28T00:37:34.587Z,58.09
2023-04-28T00:40:07.560Z,58.31
2023-04-28T00:42:39.915Z,58.47
2023-04-28T00:45:12.183Z,58.54
2023-04-28T00:47:44.544Z,58.60
2023-04-28T00:50:18.171Z,58.65
2023-04-28T00:52:51.166Z,58.69
2023-04-28T00:55:25.253Z,58.70
2023-04-28T00:57:59.515Z,58.66
2023-04-28T01:00:31.554Z,58.77
2023-04-28T01:03:04.212Z,58.77
2023-04-28T01:05:38.557Z,59.06
2023-04-28T01:08:11.285Z,59.15
2023-04-28T01:10:47.255Z,59.11
2023-04-28T01:13:21.728Z,59.17
2023-04-28T01:15:54.727Z,59.46
2023-04-28T01:18:27.920Z,59.46
2023-04-28T01:21:01.070Z,60.02
2023-04-28T01:23:33.394Z,60.02
2023-04-28T01:26:05.825Z,60.02
2023-04-28T01:28:38.044Z,60.02
2023-04-28T01:31:10.527Z,60.19
2023-04-28T01:33:43.274Z,60.07
2023-04-28T01:36:15.367Z,60.07
2023-04-28T01:38:48.120Z,59.63
2023-04-28T01:41:20.882Z,59.63
2023-04-28T01:43:52.943Z,59.75
2023-04-28T01:46:25.038Z,59.66
2023-04-28T01:48:57.714Z,59.55
2023-04-28T01:51:30.043Z,59.53
2023-04-28T01:54:02.810Z,59.46
2023-04-28T01:56:35.567Z,59.37
2023-04-28T01:59:07.838Z,59.45
2023-04-28T02:01:40.303Z,59.56
2023-04-28T02:04:12.787Z,59.37
2023-04-28T02:06:46.165Z,59.54
2023-04-28T02:09:18.955Z,59.72
2023-04-28T02:11:51.139Z,59.75
2023-04-28T02:14:23.783Z,59.74
2023-04-28T02:16:56.950Z,59.77
2023-04-28T02:19:29.069Z,59.78
2023-04-28T02:22:01.497Z,59.90
2023-04-28T02:24:38.739Z,59.85
2023-04-28T02:27:11.063Z,59.75
2023-04-28T02:29:43.473Z,59.52
2023-04-28T02:32:15.558Z,59.36
2023-04-28T02:34:47.775Z,59.48
2023-04-28T02:37:19.718Z,59.05
2023-04-28T02:39:54.312Z,59.05
2023-04-28T02:42:27.021Z,59.12
2023-04-28T02:44:59.261Z,59.11
2023-04-28T02:47:33.143Z,59.09
2023-04-28T02:50:05.854Z,58.97
2023-04-28T02:52:38.429Z,58.95
2023-04-28T02:55:11.252Z,58.83
2023-04-28T02:57:43.397Z,58.91
2023-04-28T03:00:16.463Z,58.72
2023-04-28T03:02:50.447Z,58.83
2023-04-28T03:05:22.660Z,58.83
2023-04-28T03:07:54.820Z,58.49
2023-04-28T03:10:27.059Z,58.46
2023-04-28T03:12:59.176Z,58.44
2023-04-28T03:15:31.307Z,58.41
2023-04-28T03:18:03.486Z,58.41
2023-04-28T03:20:35.846Z,58.06
2023-04-28T03:23:08.031Z,58.17
2023-04-28T03:25:40.357Z,58.06
2023-04-28T03:28:12.693Z,58.57
2023-04-28T03:30:44.755Z,58.19
2023-04-28T03:33:17.286Z,57.94
2023-04-28T03:35:49.452Z,57.79
2023-04-28T03:38:22.835Z,57.77
2023-04-28T03:40:55.521Z,57.83
2023-04-28T03:43:38.546Z,57.69
2023-04-28T03:46:12.456Z,57.74
2023-04-28T03:48:46.363Z,57.82
2023-04-28T03:51:18.634Z,57.75
2023-04-28T03:53:50.795Z,57.70
2023-04-28T03:56:23.177Z,57.03
2023-04-28T03:58:55.891Z,57.03
2023-04-28T04:01:28.246Z,56.92
2023-04-28T04:04:00.487Z,56.58
2023-04-28T04:06:34.200Z,56.10
2023-04-28T04:09:06.743Z,55.92
2023-04-28T04:11:39.150Z,55.50
2023-04-28T04:14:11.556Z,55.10
2023-04-28T04:16:44.348Z,55.17
2023-04-28T04:19:16.385Z,55.08
2023-04-28T04:21:49.542Z,54.87
2023-04-28T04:24:21.873Z,54.72
2023-04-28T04:26:54.352Z,54.52
2023-04-28T04:29:28.396Z,54.40
2023-04-28T04:32:01.224Z,54.31
2023-04-28T04:34:34.369Z,54.28
2023-04-28T04:37:07.424Z,54.24
2023-04-28T04:39:41.202Z,54.20
2023-04-28T04:42:23.884Z,54.02
2023-04-28T04:44:49.661Z,53.88
2023-04-28T04:47:26.489Z,53.53
2023-04-28T04:49:59.062Z,53.52
2023-04-28T04:52:33.079Z,53.51
2023-04-28T04:55:07.157Z,53.49
2023-04-28T04:57:40.048Z,53.86
2023-04-28T05:00:14.724Z,53.84
2023-04-28T05:02:47.253Z,53.73
2023-04-28T05:05:22.834Z,54.80
2023-04-28T05:08:08.671Z,55.17
2023-04-28T05:10:43.227Z,54.50
2023-04-28T05:13:15.921Z,53.21
2023-04-28T05:15:48.385Z,52.10
2023-04-28T05:18:28.535Z,51.28
2023-04-28T05:21:01.872Z,51.10
2023-04-28T05:23:33.913Z,50.73
2023-04-28T05:26:06.618Z,50.60
2023-04-28T05:28:41.766Z,50.72
2023-04-28T05:31:14.087Z,50.79
2023-04-28T05:33:46.621Z,50.81
2023-04-28T05:36:19.560Z,51.08
2023-04-28T05:38:52.126Z,52.35
2023-04-28T05:41:26.136Z,54.29
2023-04-28T05:43:59.534Z,53.98
2023-04-28T05:46:32.485Z,54.03
2023-04-28T05:49:04.915Z,54.10
2023-04-28T05:51:41.561Z,54.06
2023-04-28T05:54:14.635Z,54.12
2023-04-28T05:56:48.279Z,54.91
2023-04-28T05:59:20.466Z,54.36
2023-04-28T06:01:53.427Z,54.17
2023-04-28T06:04:26.651Z,54.88
2023-04-28T06:06:59.191Z,54.54
2023-04-28T06:09:32.244Z,54.53
2023-04-28T06:12:05.523Z,54.68
2023-04-28T06:14:38.806Z,54.69
2023-04-28T06:17:11.044Z,54.49
2023-04-28T06:19:43.514Z,54.67
2023-04-28T06:22:15.853Z,54.75
2023-04-28T06:24:48.126Z,54.52
2023-04-28T06:27:22.201Z,54.51
2023-04-28T06:29:54.878Z,53.29
2023-04-28T06:32:26.872Z,52.52
2023-04-28T06:34:59.832Z,51.89
2023-04-28T06:37:33.758Z,51.25
2023-04-28T06:40:07.148Z,50.59
2023-04-28T06:42:39.876Z,50.73
2023-04-28T06:45:17.801Z,49.71
2023-04-28T06:47:52.704Z,50.24
2023-04-28T06:50:25.544Z,50.25
2023-04-28T06:52:59.496Z,49.94
2023-04-28T06:55:34.121Z,49.64
2023-04-28T06:58:06.628Z,49.28
2023-04-28T07:00:39.055Z,49.04
2023-04-28T07:03:11.618Z,48.68
2023-04-28T07:05:43.872Z,48.49
2023-04-28T07:08:17.717Z,48.58
2023-04-28T07:10:50.179Z,48.21
2023-04-28T07:13:22.173Z,47.75
2023-04-28T07:15:54.342Z,48.07
2023-04-28T07:18:26.726Z,47.74
2023-04-28T07:20:59.366Z,47.61
2023-04-28T07:23:31.996Z,47.80
2023-04-28T07:26:04.277Z,47.54
2023-04-28T07:28:37.264Z,47.72
2023-04-28T07:31:09.775Z,48.09
2023-04-28T07:33:42.266Z,48.27
2023-04-28T07:36:14.722Z,48.47
2023-04-28T07:38:47.100Z,49.06
2023-04-28T07:41:19.784Z,50.00
2023-04-28T07:43:51.879Z,50.51
2023-04-28T07:46:24.308Z,51.26
2023-04-28T07:48:58.672Z,51.68
2023-04-28T07:51:30.958Z,51.90
2023-04-28T07:54:03.305Z,51.94
2023-04-28T07:56:35.749Z,52.64
2023-04-28T07:59:07.894Z,52.36
2023-04-28T08:01:40.299Z,51.82
2023-04-28T08:04:13.160Z,51.21
2023-04-28T08:06:45.907Z,50.58
2023-04-28T08:09:18.332Z,49.40
2023-04-28T08:11:51.599Z,48.61
2023-04-28T08:14:23.711Z,47.67
2023-04-28T08:16:56.071Z,46.72
2023-04-28T08:19:28.612Z,46.50
2023-04-28T08:22:02.617Z,46.85
2023-04-28T08:24:34.993Z,47.72
2023-04-28T08:27:07.449Z,49.08
2023-04-28T08:29:40.567Z,50.30
2023-04-28T08:32:12.699Z,51.88
2023-04-28T08:34:44.967Z,54.82
2023-04-28T08:37:17.238Z,57.07
2023-04-28T08:39:49.311Z,59.89
2023-04-28T08:42:21.583Z,62.12
2023-04-28T08:44:56.471Z,63.49
2023-04-28T08:47:40.848Z,64.42
2023-04-28T08:50:14.358Z,64.33
2023-04-28T08:52:48.531Z,65.40
2023-04-28T08:55:21.474Z,66.48
2023-04-28T08:57:54.963Z,68.08
2023-04-28T09:00:27.426Z,67.97
2023-04-28T09:02:59.581Z,66.94
2023-04-28T09:05:32.339Z,66.83
2023-04-28T09:08:04.874Z,66.80
2023-04-28T09:10:37.207Z,66.31
2023-04-28T09:13:09.861Z,65.73
2023-04-28T09:15:42.159Z,67.08
2023-04-28T09:18:16.015Z,67.35
2023-04-28T09:20:48.340Z,67.98
2023-04-28T09:23:22.698Z,67.00
2023-04-28T09:26:03.739Z,66.09
2023-04-28T09:28:37.146Z,63.97
2023-04-28T09:31:28.450Z,63.99
2023-04-28T09:34:01.820Z,62.48
2023-04-28T09:36:34.068Z,58.34
2023-04-28T09:39:06.806Z,56.74
2023-04-28T09:41:44.424Z,54.97
2023-04-28T09:44:19.595Z,54.18
2023-04-28T09:46:52.049Z,53.93
2023-04-28T09:49:24.324Z,52.71
2023-04-28T09:51:57.945Z,53.67
2023-04-28T09:54:32.581Z,51.84
2023-04-28T09:57:05.230Z,52.01
2023-04-28T09:59:38.558Z,53.72
2023-04-28T10:02:28.789Z,54.67
2023-04-28T10:04:47.155Z,55.46
2023-04-28T10:07:21.262Z,55.24
2023-04-28T10:09:54.024Z,55.72
2023-04-28T10:12:27.125Z,55.71
2023-04-28T10:15:01.095Z,57.19
2023-04-28T10:17:36.287Z,58.33
2023-04-28T10:20:10.962Z,58.22
2023-04-28T10:22:43.665Z,58.06
2023-04-28T10:25:30.058Z,56.75
2023-04-28T10:28:05.303Z,57.88
2023-04-28T10:30:38.221Z,57.73
2023-04-28T10:33:16.351Z,58.51
2023-04-28T10:35:48.613Z,58.43
2023-04-28T10:38:23.082Z,58.92
2023-04-28T10:40:55.690Z,60.02
2023-04-28T10:43:32.164Z,59.07
2023-04-28T10:46:06.866Z,58.95
2023-04-28T10:48:51.375Z,60.05
2023-04-28T10:51:24.536Z,61.02
2023-04-28T10:54:02.968Z,62.66
2023-04-28T10:56:35.352Z,65.16
2023-04-28T10:59:26.791Z,67.08
2023-04-28T11:02:02.240Z,68.88
2023-04-28T11:04:38.148Z,70.19
2023-04-28T11:07:14.887Z,71.86
2023-04-28T11:09:50.021Z,75.60
2023-04-28T11:12:22.248Z,75.60
2023-04-28T11:14:54.840Z,76.58
2023-04-28T11:17:36.607Z,76.28
2023-04-28T11:20:11.273Z,75.64
2023-04-28T11:22:43.795Z,74.77
2023-04-28T11:25:15.879Z,75.85
2023-04-28T11:27:48.021Z,76.80
2023-04-28T11:30:24.368Z,76.80
2023-04-28T11:32:57.960Z,76.78
2023-04-28T11:35:33.358Z,76.43
2023-04-28T11:38:05.723Z,77.94
2023-04-28T11:40:37.790Z,78.54
2023-04-28T11:43:10.055Z,77.76
2023-04-28T11:45:45.053Z,76.94
2023-04-28T11:48:23.798Z,75.90
2023-04-28T11:50:56.142Z,76.56
2023-04-28T11:53:47.763Z,76.78
2023-04-28T11:56:20.587Z,75.78
2023-04-28T11:59:06.620Z,73.95
2023-04-28T12:01:49.857Z,71.60
2023-04-28T12:04:30.323Z,69.18
2023-04-28T12:07:13.568Z,67.56
2023-04-28T12:09:48.408Z,67.41
2023-04-28T12:12:49.107Z,67.67
2023-04-28T12:15:09.726Z,67.63
2023-04-28T12:17:44.197Z,65.74
2023-04-28T12:20:38.475Z,67.01
2023-04-28T12:23:11.267Z,67.89
2023-04-28T12:25:48.437Z,67.89
2023-04-28T12:28:21.013Z,68.15
2023-04-28T12:30:54.726Z,70.92
2023-04-28T12:33:30.437Z,71.10
2023-04-28T12:36:03.182Z,72.15
2023-04-28T12:38:35.609Z,71.97
2023-04-28T12:41:08.065Z,72.32
2023-04-28T12:43:41.140Z,73.44
2023-04-28T12:46:15.035Z,74.05
2023-04-28T12:48:47.457Z,73.27
2023-04-28T12:51:20.566Z,72.69
2023-04-28T12:53:52.787Z,73.00
2023-04-28T12:56:25.352Z,74.12
2023-04-28T12:58:57.849Z,72.50
2023-04-28T13:01:30.880Z,72.02
2023-04-28T13:04:03.959Z,71.28
2023-04-28T13:06:36.943Z,70.32
2023-04-28T13:09:09.801Z,69.30
2023-04-28T13:11:43.389Z,69.35
2023-04-28T13:14:15.855Z,68.47
2023-04-28T13:16:48.352Z,67.64
2023-04-28T13:19:20.496Z,66.44
2023-04-28T13:21:52.814Z,66.55
2023-04-28T13:24:25.151Z,66.15
2023-04-28T13:26:58.668Z,66.96
2023-04-28T13:29:30.763Z,65.96
2023-04-28T13:32:02.908Z,66.25
2023-04-28T13:34:35.513Z,66.74
2023-04-28T13:37:07.962Z,65.81
2023-04-28T13:39:40.576Z,65.50
2023-04-28T13:42:13.329Z,65.81
2023-04-28T13:44:47.103Z,65.73
2023-04-28T13:47:19.502Z,65.66
2023-04-28T13:49:51.787Z,66.11
2023-04-28T13:52:23.767Z,66.19
2023-04-28T13:54:55.762Z,66.47
2023-04-28T13:57:27.895Z,67.14
2023-04-28T14:00:00.022Z,67.20
2023-04-28T14:02:34.007Z,66.20
2023-04-28T14:05:06.780Z,66.01
2023-04-28T14:07:39.008Z,68.10
2023-04-28T14:10:12.094Z,68.10
2023-04-28T14:12:44.251Z,66.77
2023-04-28T14:15:18.142Z,66.59
2023-04-28T14:17:50.455Z,66.59
2023-04-28T14:20:23.219Z,67.00
2023-04-28T14:22:55.444Z,66.38
2023-04-28T14:25:27.592Z,65.61
2023-04-28T14:28:00.160Z,66.01
2023-04-28T14:30:32.458Z,66.68
2023-04-28T14:33:04.699Z,65.77
2023-04-28T14:35:36.780Z,65.58
2023-04-28T14:38:09.269Z,65.84
2023-04-28T14:40:43.045Z,67.00
2023-04-28T14:43:15.841Z,66.81
2023-04-28T14:45:49.268Z,67.09
2023-04-28T14:48:21.608Z,66.63
2023-04-28T14:50:53.967Z,66.88
2023-04-28T14:53:26.576Z,65.53
2023-04-28T14:58:34.369Z,66.15
2023-04-28T15:01:07.008Z,66.13
2023-04-28T15:03:39.511Z,66.01
2023-04-28T15:06:12.330Z,65.58
2023-04-28T15:08:44.742Z,66.14
2023-04-28T15:11:16.992Z,67.27
2023-04-28T15:13:49.133Z,66.40
2023-04-28T15:16:21.961Z,66.68
2023-04-28T15:18:54.065Z,66.13
2023-04-28T15:21:26.431Z,66.80
2023-04-28T15:23:59.814Z,67.07
2023-04-28T15:26:32.193Z,66.83
2023-04-28T15:29:04.773Z,67.00
2023-04-28T15:31:37.745Z,66.13
2023-04-28T15:34:10.664Z,66.64
2023-04-28T15:36:44.233Z,67.18
2023-04-28T15:39:16.662Z,66.16
2023-04-28T15:41:48.990Z,66.81
2023-04-28T15:44:21.186Z,66.54
2023-04-28T15:46:53.361Z,67.00
2023-04-28T15:49:26.035Z,67.33
2023-04-28T15:51:58.584Z,67.23
2023-04-28T15:54:31.192Z,67.91
2023-04-28T15:57:03.620Z,68.58
2023-04-28T15:59:35.984Z,69.41
2023-04-28T16:02:09.069Z,69.14
2023-04-28T16:04:41.568Z,69.16
2023-04-28T16:07:14.259Z,69.22
2023-04-28T16:09:46.670Z,68.54
2023-04-28T16:12:18.870Z,68.86
2023-04-28T16:14:51.458Z,68.25
2023-04-28T16:17:24.231Z,69.29
2023-04-28T16:19:57.279Z,68.83
2023-04-28T16:22:30.065Z,68.83
2023-04-28T16:25:04.010Z,68.43
2023-04-28T16:27:37.614Z,69.37
2023-04-28T16:30:10.600Z,69.05
2023-04-28T16:32:43.000Z,68.94
2023-04-28T16:35:15.684Z,68.12
2023-04-28T16:37:47.768Z,67.85
2023-04-28T16:40:20.339Z,67.93
2023-04-28T16:42:54.227Z,68.20
2023-04-28T16:45:26.240Z,68.74
2023-04-28T16:47:58.729Z,69.34
2023-04-28T16:50:31.869Z,69.36
2023-04-28T16:53:04.119Z,69.84
2023-04-28T16:55:39.689Z,69.73
2023-04-28T16:58:12.843Z,69.30
2023-04-28T17:00:45.617Z,68.47
2023-04-28T17:03:18.498Z,68.94
2023-04-28T17:05:51.185Z,69.71
2023-04-28T17:08:23.039Z,69.77
2023-04-28T17:10:55.554Z,69.79
2023-04-28T17:13:27.949Z,69.44
2023-04-28T17:16:00.613Z,69.73
2023-04-28T17:18:33.783Z,69.34
2023-04-28T17:21:07.204Z,67.62
2023-04-28T17:23:39.599Z,67.60
2023-04-28T17:26:12.190Z,67.49
2023-04-28T17:28:44.330Z,67.77
2023-04-28T17:31:16.795Z,67.97
2023-04-28T17:33:50.634Z,68.52
2023-04-28T17:36:25.572Z,68.93
2023-04-28T17:38:58.157Z,69.01
2023-04-28T17:41:30.395Z,68.96
2023-04-28T17:44:02.733Z,69.27
2023-04-28T17:46:34.872Z,69.69
2023-04-28T17:49:06.925Z,69.14
2023-04-28T17:51:39.154Z,68.46
2023-04-28T17:54:11.424Z,68.73
2023-04-28T17:56:43.652Z,68.52
2023-04-28T17:59:17.084Z,68.49
2023-04-28T18:01:49.406Z,68.38
2023-04-28T18:04:22.091Z,68.10
2023-04-28T18:06:54.291Z,69.10
2023-04-28T18:09:27.321Z,69.47
2023-04-28T18:11:59.720Z,69.38
2023-04-28T18:14:32.173Z,69.24
2023-04-28T18:17:04.278Z,68.18
2023-04-28T18:19:36.779Z,68.81
2023-04-28T18:22:08.763Z,69.31
2023-04-28T18:24:40.982Z,69.13
2023-04-28T18:27:13.443Z,69.12
2023-04-28T18:29:45.613Z,68.83
2023-04-28T18:32:17.880Z,68.80
2023-04-28T18:34:50.226Z,68.16
2023-04-28T18:37:23.913Z,67.56
2023-04-28T18:39:58.704Z,68.19
2023-04-28T18:42:33.380Z,68.53
2023-04-28T18:45:06.563Z,69.21
2023-04-28T18:47:38.799Z,69.50
2023-04-28T18:50:11.584Z,68.85
2023-04-28T18:52:43.667Z,69.04
2023-04-28T18:55:17.241Z,67.97
2023-04-28T18:57:53.072Z,68.00
2023-04-28T19:00:27.351Z,68.20
2023-04-28T19:03:00.762Z,68.24
2023-04-28T19:05:34.094Z,68.18
2023-04-28T19:08:10.817Z,68.83
2023-04-28T19:10:41.624Z,69.78
2023-04-28T19:13:14.451Z,69.53
2023-04-28T19:15:47.025Z,70.19
2023-04-28T19:18:19.448Z,70.90
2023-04-28T19:20:52.461Z,71.38
2023-04-28T19:23:25.466Z,71.71
2023-04-28T19:25:59.397Z,72.61
2023-04-28T19:28:31.610Z,72.98
2023-04-28T19:31:04.494Z,72.96
2023-04-28T19:33:36.777Z,72.78
2023-04-28T19:36:10.046Z,72.84
2023-04-28T19:38:42.344Z,72.51
2023-04-28T19:41:14.995Z,72.55
2023-04-28T19:43:47.118Z,72.14
2023-04-28T19:46:19.616Z,72.88
2023-04-28T19:48:52.925Z,73.37
2023-04-28T19:51:24.957Z,73.76
2023-04-28T19:53:57.095Z,73.97
2023-04-28T19:56:29.262Z,74.81
2023-04-28T19:59:01.264Z,74.81
2023-04-28T20:01:33.658Z,75.34
2023-04-28T20:04:05.930Z,75.61
2023-04-28T20:06:38.447Z,76.49
2023-04-28T20:09:11.027Z,76.37
2023-04-28T20:11:43.334Z,76.64
2023-04-28T20:14:15.759Z,76.86
2023-04-28T20:16:47.771Z,77.93
2023-04-28T20:19:19.946Z,78.21
2023-04-28T20:21:52.566Z,77.99
2023-04-28T20:24:24.867Z,78.24
2023-04-28T20:26:58.467Z,77.94
2023-04-28T20:29:33.934Z,78.62
2023-04-28T20:32:06.513Z,79.18
2023-04-28T20:34:40.024Z,78.78
2023-04-28T20:37:13.526Z,79.51
2023-04-28T20:39:45.572Z,79.25
2023-04-28T20:42:17.952Z,78.91
2023-04-28T20:44:50.955Z,79.12
2023-04-28T20:47:23.102Z,78.88
2023-04-28T20:49:55.109Z,79.66
2023-04-28T20:52:28.971Z,79.96
2023-04-28T20:55:01.168Z,80.06
2023-04-28T20:57:33.638Z,79.20
2023-04-28T21:00:07.682Z,79.91
2023-04-28T21:02:40.428Z,79.89
2023-04-28T21:05:12.789Z,79.63
2023-04-28T21:07:45.478Z,80.11
2023-04-28T21:10:17.556Z,79.78
2023-04-28T21:12:50.989Z,79.26
2023-04-28T21:15:23.032Z,78.21
2023-04-28T21:17:55.113Z,78.51
2023-04-28T21:20:27.226Z,78.76
2023-04-28T21:22:59.286Z,79.04
2023-04-28T21:25:31.727Z,78.46
2023-04-28T21:28:03.778Z,77.80
2023-04-28T21:30:35.857Z,77.15
2023-04-28T21:33:08.100Z,76.97
2023-04-28T21:35:40.122Z,77.05
2023-04-28T21:38:12.480Z,77.42
2023-04-28T21:40:44.464Z,77.26
2023-04-28T21:43:16.926Z,77.58
2023-04-28T21:45:49.033Z,76.63
2023-04-28T21:48:21.493Z,76.27
2023-04-28T21:50:53.744Z,75.01
2023-04-28T21:53:26.003Z,75.89
2023-04-28T21:55:58.073Z,75.48
2023-04-28T21:58:29.998Z,74.76
2023-04-28T22:01:02.851Z,73.87
2023-04-28T22:03:36.319Z,74.73
2023-04-28T22:06:09.133Z,75.06
2023-04-28T22:08:41.751Z,74.94
2023-04-28T22:11:15.882Z,75.25
2023-04-28T22:13:47.980Z,75.55
2023-04-28T22:16:20.633Z,74.77
2023-04-28T22:18:52.965Z,74.59
2023-04-28T22:21:25.659Z,74.72
2023-04-28T22:23:58.053Z,74.75
2023-04-28T22:26:34.584Z,73.97
2023-04-28T22:29:07.100Z,73.52
2023-04-28T22:31:39.448Z,74.03
2023-04-28T22:34:11.845Z,74.51
2023-04-28T22:36:45.231Z,75.13
2023-04-28T22:39:17.237Z,75.34
2023-04-28T22:41:49.470Z,75.87
2023-04-28T22:44:21.452Z,76.66
2023-04-28T22:46:53.644Z,76.64
2023-04-28T22:49:27.568Z,77.18
2023-04-28T22:52:00.067Z,77.22
2023-04-28T22:54:32.250Z,77.43
2023-04-28T22:57:04.240Z,77.23
2023-04-28T22:59:36.219Z,77.81
2023-04-28T23:02:10.123Z,77.80
2023-04-28T23:04:42.751Z,78.24
2023-04-28T23:07:15.102Z,78.12
2023-04-28T23:09:47.654Z,78.92
2023-04-28T23:12:19.822Z,79.32
2023-04-28T23:14:51.982Z,79.21
2023-04-28T23:17:24.138Z,79.33
2023-04-28T23:19:56.455Z,79.56
2023-04-28T23:22:28.543Z,79.29
2023-04-28T23:25:00.901Z,79.54
2023-04-28T23:27:34.271Z,79.87
2023-04-28T23:30:06.927Z,79.78
2023-04-28T23:32:39.239Z,79.98
2023-04-28T23:35:11.547Z,80.35
2023-04-28T23:37:43.664Z,80.78
2023-04-28T23:40:15.979Z,81.07
2023-04-28T23:42:48.484Z,81.41
2023-04-28T23:45:20.955Z,81.47
2023-04-28T23:47:53.585Z,81.97
2023-04-28T23:50:27.494Z,81.75
2023-04-28T23:52:59.503Z,81.82
2023-04-28T23:55:31.771Z,81.64
2023-04-28T23:58:03.867Z,81.79
